createdAt,value
2022-12-22T00:01:13.583Z,0.12
2022-12-22T00:04:17.188Z,0.14
2022-12-22T00:07:20.940Z,0.19
2022-12-22T00:10:24.933Z,0.21
2022-12-22T00:13:33.252Z,0.20
2022-12-22T00:16:37.294Z,0.17
2022-12-22T00:19:41.353Z,0.15
2022-12-22T00:22:45.288Z,0.12
2022-12-22T00:25:49.259Z,0.13
2022-12-22T00:28:53.783Z,0.13
2022-12-22T00:31:58.419Z,0.19
2022-12-22T00:35:01.869Z,0.21
2022-12-22T00:38:05.394Z,0.27
2022-12-22T00:41:08.827Z,0.30
2022-12-22T00:44:12.271Z,0.33
2022-12-22T00:47:15.625Z,0.35
2022-12-22T00:50:18.918Z,0.39
2022-12-22T00:53:22.851Z,0.44
2022-12-22T00:56:27.411Z,0.49
2022-12-22T00:59:30.650Z,0.58
2022-12-22T01:02:35.884Z,0.59
2022-12-22T01:05:39.912Z,0.61
2022-12-22T01:08:43.235Z,0.69
2022-12-22T01:11:46.655Z,0.72
2022-12-22T01:14:50.067Z,0.74
2022-12-22T01:17:53.339Z,0.74
2022-12-22T01:20:56.750Z,0.72
2022-12-22T01:24:00.651Z,0.72
2022-12-22T01:27:03.865Z,0.76
2022-12-22T01:30:07.383Z,0.79
2022-12-22T01:33:10.832Z,0.82
2022-12-22T01:36:14.155Z,0.88
2022-12-22T01:39:17.704Z,0.92
2022-12-22T01:42:21.089Z,0.98
2022-12-22T01:45:41.431Z,1.01
2022-12-22T01:48:47.728Z,1.03
2022-12-22T01:51:51.126Z,1.05
2022-12-22T01:54:54.575Z,1.06
2022-12-22T01:57:58.114Z,1.09
2022-12-22T02:01:03.223Z,1.12
2022-12-22T02:04:06.607Z,1.15
2022-12-22T02:07:13.881Z,1.18
2022-12-22T02:10:29.598Z,1.19
2022-12-22T02:14:03.048Z,1.20
2022-12-22T02:17:25.622Z,1.20
2022-12-22T02:20:32.159Z,1.20
2022-12-22T02:23:56.819Z,1.19
2022-12-22T02:27:07.594Z,1.21
2022-12-22T02:30:18.897Z,1.21
2022-12-22T02:33:22.470Z,1.21
2022-12-22T02:36:52.167Z,1.24
2022-12-22T02:39:58.680Z,1.28
2022-12-22T02:43:20.361Z,1.28
2022-12-22T02:46:33.127Z,1.30
2022-12-22T02:49:41.104Z,1.33
2022-12-22T02:52:52.842Z,1.34
2022-12-22T02:55:56.661Z,1.35
2022-12-22T02:59:00.105Z,1.35
2022-12-22T03:02:05.267Z,1.36
2022-12-22T03:05:09.070Z,1.39
2022-12-22T03:08:12.486Z,1.41
2022-12-22T03:11:15.801Z,1.36
2022-12-22T03:14:19.202Z,1.39
2022-12-22T03:17:22.550Z,1.37
2022-12-22T03:20:26.995Z,1.37
2022-12-22T03:23:30.285Z,1.36
2022-12-22T03:26:15.103Z,1.41
2022-12-22T03:29:00.115Z,1.42
2022-12-22T03:31:45.077Z,1.40
2022-12-22T03:34:30.059Z,1.43
2022-12-22T03:37:15.097Z,1.45
2022-12-22T03:39:59.966Z,1.47
2022-12-22T03:43:03.371Z,1.46
2022-12-22T03:46:29.245Z,1.45
2022-12-22T03:49:14.378Z,1.45
2022-12-22T03:51:59.192Z,1.49
2022-12-22T03:54:43.934Z,1.49
2022-12-22T03:57:28.703Z,1.49
2022-12-22T04:00:14.190Z,1.49
2022-12-22T04:02:58.931Z,1.51
2022-12-22T04:05:44.995Z,1.51
2022-12-22T04:08:29.896Z,1.53
2022-12-22T04:11:34.617Z,1.53
2022-12-22T04:14:20.385Z,1.56
2022-12-22T04:17:07.189Z,1.56
2022-12-22T04:19:52.113Z,1.57
2022-12-22T04:22:36.896Z,1.56
2022-12-22T04:25:22.182Z,1.59
2022-12-22T04:28:07.160Z,1.58
2022-12-22T04:30:51.958Z,1.56
2022-12-22T04:33:37.125Z,1.61
2022-12-22T04:36:21.898Z,1.63
2022-12-22T04:39:06.690Z,1.62
2022-12-22T04:41:51.628Z,1.62
2022-12-22T04:44:36.704Z,1.63
2022-12-22T04:47:21.421Z,1.66
2022-12-22T04:50:06.588Z,1.65
2022-12-22T04:52:51.657Z,1.66
2022-12-22T04:55:36.174Z,1.68
2022-12-22T04:58:21.023Z,1.66
2022-12-22T05:01:10.168Z,1.68
2022-12-22T05:03:55.362Z,1.70
2022-12-22T05:06:40.435Z,1.70
2022-12-22T05:09:25.345Z,1.69
2022-12-22T05:12:28.782Z,1.68
2022-12-22T05:15:13.583Z,1.64
2022-12-22T05:17:59.746Z,1.63
2022-12-22T05:20:44.711Z,1.63
2022-12-22T05:23:29.711Z,1.63
2022-12-22T05:26:16.770Z,1.63
2022-12-22T05:29:01.635Z,1.60
2022-12-22T05:31:47.471Z,1.53
2022-12-22T05:34:32.635Z,1.43
2022-12-22T05:37:17.556Z,1.38
2022-12-22T05:40:02.288Z,1.34
2022-12-22T05:42:47.270Z,1.27
2022-12-22T05:45:32.247Z,1.24
2022-12-22T05:48:19.927Z,1.21
2022-12-22T05:51:09.945Z,1.16
2022-12-22T05:53:55.171Z,1.16
2022-12-22T05:56:40.232Z,1.12
2022-12-22T05:59:25.032Z,1.14
2022-12-22T06:02:09.863Z,1.10
2022-12-22T06:04:54.435Z,1.10
2022-12-22T06:07:39.304Z,1.07
2022-12-22T06:10:24.235Z,1.03
2022-12-22T06:13:09.198Z,1.02
2022-12-22T06:15:54.067Z,1.00
2022-12-22T06:18:39.133Z,0.99
2022-12-22T06:21:23.987Z,1.01
2022-12-22T06:24:08.764Z,1.00
2022-12-22T06:26:53.445Z,0.98
2022-12-22T06:29:38.468Z,0.92
2022-12-22T06:32:23.689Z,0.94
2022-12-22T06:35:09.163Z,0.97
2022-12-22T06:37:54.010Z,0.96
2022-12-22T06:40:38.880Z,1.02
2022-12-22T06:43:25.017Z,1.03
2022-12-22T06:46:09.981Z,1.02
2022-12-22T06:48:54.716Z,1.05
2022-12-22T06:51:39.919Z,1.06
2022-12-22T06:54:26.513Z,1.09
2022-12-22T06:57:11.330Z,1.10
2022-12-22T06:59:57.815Z,1.08
2022-12-22T07:02:44.756Z,1.10
2022-12-22T07:05:31.238Z,1.14
2022-12-22T07:08:16.032Z,1.16
2022-12-22T07:11:01.189Z,1.17
2022-12-22T07:13:49.688Z,1.23
2022-12-22T07:16:45.321Z,1.24
2022-12-22T07:19:30.206Z,1.28
2022-12-22T07:22:29.953Z,1.31
2022-12-22T07:25:15.316Z,1.40
2022-12-22T07:28:00.382Z,1.44
2022-12-22T07:30:44.945Z,1.54
2022-12-22T07:33:30.357Z,1.65
2022-12-22T07:36:21.602Z,1.66
2022-12-22T07:39:07.128Z,1.67
2022-12-22T07:42:10.672Z,1.71
2022-12-22T07:44:55.428Z,1.76
2022-12-22T07:47:41.251Z,1.88
2022-12-22T07:50:31.809Z,2.02
2022-12-22T07:53:16.642Z,2.12
2022-12-22T07:56:05.190Z,2.09
2022-12-22T07:58:50.366Z,2.10
2022-12-22T08:01:38.137Z,2.15
2022-12-22T08:04:49.709Z,2.14
2022-12-22T08:07:35.446Z,2.10
2022-12-22T08:10:31.505Z,2.11
2022-12-22T08:13:53.432Z,2.06
2022-12-22T08:16:49.329Z,2.08
2022-12-22T08:19:36.718Z,2.16
2022-12-22T08:22:24.927Z,2.21
2022-12-22T08:25:15.870Z,2.24
2022-12-22T08:28:02.257Z,2.36
2022-12-22T08:30:47.858Z,2.42
2022-12-22T08:33:33.076Z,2.37
2022-12-22T08:36:18.133Z,2.37
2022-12-22T08:39:04.714Z,2.39
2022-12-22T08:42:28.057Z,2.36
2022-12-22T08:45:37.927Z,2.34
2022-12-22T08:48:35.117Z,2.33
2022-12-22T08:51:26.311Z,2.36
2022-12-22T08:54:11.569Z,2.33
2022-12-22T08:56:58.125Z,2.23
2022-12-22T08:59:43.210Z,2.25
2022-12-22T09:02:28.239Z,2.24
2022-12-22T09:05:13.176Z,2.14
2022-12-22T09:07:58.158Z,2.14
2022-12-22T09:10:45.998Z,2.11
2022-12-22T09:13:31.146Z,2.07
2022-12-22T09:16:16.211Z,2.07
2022-12-22T09:19:06.115Z,2.03
2022-12-22T09:21:55.322Z,2.09
2022-12-22T09:24:43.328Z,2.03
2022-12-22T09:27:30.259Z,2.16
2022-12-22T09:30:16.606Z,2.17
2022-12-22T09:33:01.112Z,2.19
2022-12-22T09:35:45.869Z,2.21
2022-12-22T09:38:30.727Z,2.21
2022-12-22T09:41:34.531Z,2.18
2022-12-22T09:44:33.990Z,2.22
2022-12-22T09:47:32.753Z,2.24
2022-12-22T09:50:18.666Z,2.29
2022-12-22T09:53:06.208Z,2.29
2022-12-22T09:55:51.587Z,2.33
2022-12-22T09:58:37.346Z,2.35
2022-12-22T10:02:19.864Z,2.36
2022-12-22T10:05:12.335Z,2.32
2022-12-22T10:08:02.013Z,2.35
2022-12-22T10:10:56.384Z,2.33
2022-12-22T10:13:48.239Z,2.34
2022-12-22T10:16:36.140Z,2.34
2022-12-22T10:19:21.146Z,2.30
2022-12-22T10:22:30.727Z,2.41
2022-12-22T10:26:17.296Z,2.37
2022-12-22T10:29:08.698Z,2.40
2022-12-22T10:32:05.032Z,2.40
2022-12-22T10:35:05.663Z,2.42
2022-12-22T10:37:58.636Z,2.45
2022-12-22T10:40:46.286Z,2.50
2022-12-22T10:43:34.759Z,2.60
2022-12-22T10:47:01.433Z,2.73
2022-12-22T10:50:14.533Z,2.85
2022-12-22T10:53:12.739Z,2.76
2022-12-22T10:56:53.952Z,2.79
2022-12-22T10:59:56.569Z,2.95
2022-12-22T11:02:52.113Z,3.11
2022-12-22T11:05:37.238Z,3.14
2022-12-22T11:08:24.395Z,3.22
2022-12-22T11:11:37.330Z,3.21
2022-12-22T11:14:38.384Z,3.19
2022-12-22T11:18:01.694Z,3.14
2022-12-22T11:21:24.002Z,3.05
2022-12-22T11:25:06.152Z,2.96
2022-12-22T11:28:15.918Z,2.91
2022-12-22T11:31:24.497Z,2.84
2022-12-22T11:34:40.409Z,2.77
2022-12-22T11:37:59.305Z,2.78
2022-12-22T11:41:21.454Z,2.76
2022-12-22T11:44:58.674Z,2.77
2022-12-22T11:47:53.100Z,2.77
2022-12-22T11:50:59.671Z,2.77
2022-12-22T11:54:13.777Z,2.80
2022-12-22T11:57:23.568Z,2.77
2022-12-22T12:00:10.382Z,2.78
2022-12-22T12:03:43.603Z,2.80
2022-12-22T12:06:47.095Z,2.82
2022-12-22T12:09:32.329Z,2.81
2022-12-22T12:12:36.856Z,2.81
2022-12-22T12:15:29.448Z,2.78
2022-12-22T12:18:53.630Z,2.79
2022-12-22T12:21:49.468Z,2.80
2022-12-22T12:25:50.565Z,2.78
2022-12-22T12:28:53.411Z,2.79
2022-12-22T12:31:46.219Z,2.76
2022-12-22T12:34:37.111Z,2.72
2022-12-22T12:37:29.831Z,2.67
2022-12-22T12:40:33.649Z,2.66
2022-12-22T12:43:20.783Z,2.55
2022-12-22T12:46:42.619Z,2.48
2022-12-22T12:49:36.075Z,2.48
2022-12-22T12:53:02.263Z,2.45
2022-12-22T12:55:49.731Z,2.45
2022-12-22T12:58:34.936Z,2.45
2022-12-22T13:01:28.949Z,2.41
2022-12-22T13:04:51.871Z,2.43
2022-12-22T13:08:07.896Z,2.43
2022-12-22T13:10:55.441Z,2.43
2022-12-22T13:13:40.556Z,2.42
2022-12-22T13:16:26.629Z,2.42
2022-12-22T13:19:19.292Z,2.42
2022-12-22T13:22:07.972Z,2.43
2022-12-22T13:24:55.475Z,2.46
2022-12-22T13:27:40.862Z,2.48
2022-12-22T13:30:29.984Z,2.47
2022-12-22T13:33:19.331Z,2.45
2022-12-22T13:36:08.070Z,2.48
2022-12-22T13:39:05.212Z,2.47
2022-12-22T13:41:51.452Z,2.50
2022-12-22T13:44:38.229Z,2.53
2022-12-22T13:51:08.688Z,2.53
2022-12-22T13:54:09.170Z,2.56
2022-12-22T13:56:57.982Z,2.54
2022-12-22T13:59:45.075Z,2.54
2022-12-22T14:02:32.603Z,2.54
2022-12-22T14:05:18.807Z,2.52
2022-12-22T14:08:05.723Z,2.52
2022-12-22T14:10:51.544Z,2.51
2022-12-22T14:13:38.940Z,2.47
2022-12-22T14:16:24.136Z,2.48
2022-12-22T14:19:13.253Z,2.51
2022-12-22T14:22:08.865Z,2.53
2022-12-22T14:24:58.706Z,2.54
2022-12-22T14:27:47.352Z,2.55
2022-12-22T14:30:39.091Z,2.57
2022-12-22T14:33:27.163Z,2.58
2022-12-22T14:36:23.272Z,2.59
2022-12-22T14:39:09.958Z,2.59
2022-12-22T14:41:57.539Z,2.62
2022-12-22T14:44:45.291Z,2.64
2022-12-22T14:47:30.043Z,2.63
2022-12-22T14:50:21.141Z,2.63
2022-12-22T14:53:06.111Z,2.62
2022-12-22T14:55:51.463Z,2.64
2022-12-22T14:58:40.799Z,2.62
2022-12-22T15:01:27.735Z,2.62
2022-12-22T15:04:19.909Z,2.60
2022-12-22T15:08:03.210Z,2.56
2022-12-22T15:10:37.720Z,2.53
2022-12-22T15:13:24.047Z,2.49
2022-12-22T15:16:14.134Z,2.47
2022-12-22T15:18:58.877Z,2.42
2022-12-22T15:21:44.104Z,2.39
2022-12-22T15:24:28.764Z,2.37
2022-12-22T15:27:13.905Z,2.36
2022-12-22T15:29:58.288Z,2.33
2022-12-22T15:32:43.499Z,2.31
2022-12-22T15:35:33.756Z,2.30
2022-12-22T15:38:21.181Z,2.29
2022-12-22T15:41:07.065Z,2.27
2022-12-22T15:43:57.815Z,2.25
2022-12-22T15:46:49.133Z,2.23
2022-12-22T15:49:34.015Z,2.22
2022-12-22T15:52:18.943Z,2.21
2022-12-22T15:55:04.252Z,2.18
2022-12-22T15:57:51.168Z,2.18
2022-12-22T16:00:36.063Z,2.17
2022-12-22T16:03:21.034Z,2.17
2022-12-22T16:06:12.956Z,2.15
2022-12-22T16:08:57.840Z,2.16
2022-12-22T16:11:42.755Z,2.14
2022-12-22T16:14:29.272Z,2.16
2022-12-22T16:17:21.860Z,2.18
2022-12-22T16:20:08.577Z,2.19
2022-12-22T16:22:53.760Z,2.18
2022-12-22T16:25:39.315Z,2.20
2022-12-22T16:28:24.842Z,2.22
2022-12-22T16:31:17.426Z,2.21
2022-12-22T16:34:02.314Z,2.24
2022-12-22T16:36:47.283Z,2.22
2022-12-22T16:39:31.952Z,2.25
2022-12-22T16:45:25.204Z,2.26
2022-12-22T16:48:26.406Z,2.24
2022-12-22T16:51:17.684Z,2.23
2022-12-22T16:54:03.916Z,2.23
2022-12-22T16:56:51.284Z,2.23
2022-12-22T16:59:35.955Z,2.20
2022-12-22T17:02:28.523Z,2.20
2022-12-22T17:05:24.168Z,2.17
2022-12-22T17:08:34.205Z,2.17
2022-12-22T17:11:23.375Z,2.15
2022-12-22T17:14:28.006Z,2.13
2022-12-22T17:17:17.932Z,2.16
2022-12-22T17:20:03.704Z,2.15
2022-12-22T17:22:58.369Z,2.14
2022-12-22T17:25:43.443Z,2.14
2022-12-22T17:28:28.490Z,2.10
2022-12-22T17:31:15.396Z,2.12
2022-12-22T17:34:00.518Z,2.07
2022-12-22T17:36:46.193Z,2.12
2022-12-22T17:39:33.409Z,2.12
2022-12-22T17:42:20.933Z,2.11
2022-12-22T17:45:13.182Z,2.11
2022-12-22T17:47:58.081Z,2.10
2022-12-22T17:50:44.334Z,2.09
2022-12-22T17:53:30.227Z,2.07
2022-12-22T17:56:18.154Z,2.04
2022-12-22T17:59:03.156Z,2.03
2022-12-22T18:01:48.319Z,2.02
2022-12-22T18:04:33.195Z,2.03
2022-12-22T18:07:21.110Z,2.02
2022-12-22T18:10:06.635Z,1.99
2022-12-22T18:12:53.397Z,1.97
2022-12-22T18:15:38.205Z,1.98
2022-12-22T18:18:23.660Z,1.98
2022-12-22T18:21:24.293Z,1.97
2022-12-22T18:24:16.151Z,1.98
2022-12-22T18:27:00.981Z,1.96
2022-12-22T18:29:49.464Z,1.96
2022-12-22T18:32:34.069Z,1.96
2022-12-22T18:35:21.889Z,1.98
2022-12-22T18:38:07.082Z,2.01
2022-12-22T18:40:52.135Z,2.03
2022-12-22T18:43:37.251Z,2.05
2022-12-22T18:46:23.261Z,2.04
2022-12-22T18:49:08.216Z,2.03
2022-12-22T18:51:52.950Z,2.02
2022-12-22T18:54:39.237Z,2.02
2022-12-22T18:57:24.387Z,2.00
2022-12-22T19:00:13.985Z,1.99
2022-12-22T19:03:00.629Z,1.98
2022-12-22T19:05:46.986Z,1.99
2022-12-22T19:08:31.816Z,1.99
2022-12-22T19:11:17.736Z,1.99
2022-12-22T19:14:03.573Z,1.99
2022-12-22T19:16:48.627Z,1.97
2022-12-22T19:19:33.352Z,1.96
2022-12-22T19:22:18.090Z,1.98
2022-12-22T19:25:03.107Z,1.99
2022-12-22T19:27:51.987Z,1.97
2022-12-22T19:30:36.863Z,1.94
2022-12-22T19:33:28.853Z,1.98
2022-12-22T19:36:17.461Z,1.95
2022-12-22T19:39:05.418Z,1.96
2022-12-22T19:41:53.502Z,1.96
2022-12-22T19:44:38.580Z,1.97
2022-12-22T19:47:26.329Z,1.97
2022-12-22T19:50:20.484Z,1.98
2022-12-22T19:53:05.247Z,1.99
2022-12-22T19:55:54.038Z,1.98
2022-12-22T19:58:40.120Z,1.98
2022-12-22T20:01:25.449Z,1.96
2022-12-22T20:04:13.662Z,1.95
2022-12-22T20:06:58.555Z,1.94
2022-12-22T20:09:43.946Z,1.95
2022-12-22T20:12:38.573Z,1.94
2022-12-22T20:15:34.209Z,1.92
2022-12-22T20:18:22.861Z,1.95
2022-12-22T20:21:11.861Z,1.96
2022-12-22T20:23:59.013Z,1.97
2022-12-22T20:26:47.288Z,1.98
2022-12-22T20:29:34.970Z,2.00
2022-12-22T20:32:27.341Z,2.01
2022-12-22T20:35:13.158Z,2.03
2022-12-22T20:37:58.676Z,2.03
2022-12-22T20:40:44.413Z,2.05
2022-12-22T20:43:30.929Z,2.05
2022-12-22T20:46:17.745Z,2.07
2022-12-22T20:49:03.922Z,2.08
2022-12-22T20:51:48.907Z,2.08
2022-12-22T20:54:34.406Z,2.08
2022-12-22T20:57:22.072Z,2.09
2022-12-22T21:00:07.773Z,2.07
2022-12-22T21:02:53.850Z,2.07
2022-12-22T21:05:38.656Z,2.03
2022-12-22T21:08:25.700Z,2.06
2022-12-22T21:11:10.724Z,2.04
2022-12-22T21:13:56.987Z,2.05
2022-12-22T21:16:42.774Z,2.02
2022-12-22T21:19:27.539Z,2.05
2022-12-22T21:22:12.451Z,2.04
2022-12-22T21:24:57.395Z,2.00
2022-12-22T21:27:44.673Z,2.02
2022-12-22T21:30:29.578Z,1.99
2022-12-22T21:33:14.202Z,2.01
2022-12-22T21:36:02.169Z,2.01
2022-12-22T21:38:48.095Z,2.01
2022-12-22T21:41:51.799Z,2.03
2022-12-22T21:44:36.702Z,2.05
2022-12-22T21:47:21.437Z,2.06
2022-12-22T21:50:07.014Z,2.04
2022-12-22T21:52:52.432Z,2.04
2022-12-22T21:55:38.623Z,2.03
2022-12-22T21:58:23.614Z,1.99
2022-12-22T22:01:12.681Z,1.99
2022-12-22T22:03:57.670Z,1.97
2022-12-22T22:06:42.710Z,1.96
2022-12-22T22:09:27.468Z,1.95
2022-12-22T22:12:30.619Z,1.93
2022-12-22T22:15:15.728Z,1.90
2022-12-22T22:18:06.536Z,1.89
2022-12-22T22:20:52.139Z,1.87
2022-12-22T22:23:37.583Z,1.88
2022-12-22T22:26:22.036Z,1.88
2022-12-22T22:29:06.892Z,1.85
2022-12-22T22:31:51.481Z,1.84
2022-12-22T22:34:36.485Z,1.84
2022-12-22T22:37:21.463Z,1.82
2022-12-22T22:40:09.319Z,1.83
2022-12-22T22:42:56.207Z,1.82
2022-12-22T22:45:42.519Z,1.83
2022-12-22T22:48:27.105Z,1.79
2022-12-22T22:51:12.070Z,1.79
2022-12-22T22:53:57.039Z,1.79
2022-12-22T22:56:42.189Z,1.78
2022-12-22T22:59:26.976Z,1.78
2022-12-22T23:02:15.435Z,1.77
2022-12-22T23:05:00.657Z,1.76
2022-12-22T23:07:45.591Z,1.75
2022-12-22T23:10:32.708Z,1.75
2022-12-22T23:13:21.248Z,1.73
2022-12-22T23:16:06.121Z,1.71
2022-12-22T23:18:52.704Z,1.70
2022-12-22T23:21:37.583Z,1.67
2022-12-22T23:24:22.864Z,1.66
2022-12-22T23:27:07.568Z,1.64
2022-12-22T23:29:52.336Z,1.64
2022-12-22T23:32:37.486Z,1.62
2022-12-22T23:35:22.215Z,1.62
2022-12-22T23:38:10.646Z,1.61
2022-12-22T23:41:07.350Z,1.58
2022-12-22T23:43:52.905Z,1.57
2022-12-22T23:46:37.815Z,1.56
2022-12-22T23:49:22.918Z,1.56
2022-12-22T23:52:07.804Z,1.56
2022-12-22T23:54:52.838Z,1.57
2022-12-22T23:57:38.222Z,1.56
